sensor_id;sensor_type;location;lat;lon;timestamp;pressure;altitude;pressure_sealevel;temperature;humidity
64683;BME280;51107;47.652;19.016;2023-03-13T00:01:33;100079.56;;;3.19;62.08
64683;BME280;51107;47.652;19.016;2023-03-13T00:04:02;100085.44;;;3.35;61.30
64683;BME280;51107;47.652;19.016;2023-03-13T00:06:33;100083.72;;;3.49;62.04
64683;BME280;51107;47.652;19.016;2023-03-13T00:09:04;100078.41;;;3.65;60.92
64683;BME280;51107;47.652;19.016;2023-03-13T00:11:33;100080.22;;;3.50;61.61
64683;BME280;51107;47.652;19.016;2023-03-13T00:14:03;100073.31;;;3.50;61.68
64683;BME280;51107;47.652;19.016;2023-03-13T00:16:32;100071.09;;;3.59;61.46
64683;BME280;51107;47.652;19.016;2023-03-13T00:19:03;100081.72;;;3.67;60.79
64683;BME280;51107;47.652;19.016;2023-03-13T00:21:33;100074.91;;;3.66;60.27
64683;BME280;51107;47.652;19.016;2023-03-13T00:24:01;100072.53;;;3.63;59.82
64683;BME280;51107;47.652;19.016;2023-03-13T00:26:30;100071.28;;;3.55;58.52
64683;BME280;51107;47.652;19.016;2023-03-13T00:28:58;100074.25;;;3.49;59.32
64683;BME280;51107;47.652;19.016;2023-03-13T00:31:30;100082.88;;;3.48;58.68
64683;BME280;51107;47.652;19.016;2023-03-13T00:34:01;100076.59;;;3.39;59.12
64683;BME280;51107;47.652;19.016;2023-03-13T00:36:32;100088.09;;;3.34;59.79
64683;BME280;51107;47.652;19.016;2023-03-13T00:39:04;100075.53;;;3.29;60.18
64683;BME280;51107;47.652;19.016;2023-03-13T00:41:35;100085.88;;;3.28;59.79
64683;BME280;51107;47.652;19.016;2023-03-13T00:44:05;100075.06;;;3.22;59.16
64683;BME280;51107;47.652;19.016;2023-03-13T00:46:34;100075.59;;;3.28;60.02
64683;BME280;51107;47.652;19.016;2023-03-13T00:49:03;100054.94;;;3.29;59.04
64683;BME280;51107;47.652;19.016;2023-03-13T00:51:34;100066.75;;;3.32;60.15
64683;BME280;51107;47.652;19.016;2023-03-13T00:54:02;100070.53;;;3.26;60.82
64683;BME280;51107;47.652;19.016;2023-03-13T00:56:32;100074.87;;;3.26;61.01
64683;BME280;51107;47.652;19.016;2023-03-13T00:59:01;100064.69;;;3.24;61.56
64683;BME280;51107;47.652;19.016;2023-03-13T01:01:32;100045.75;;;3.11;60.30
64683;BME280;51107;47.652;19.016;2023-03-13T01:04:06;100048.19;;;2.99;60.49
64683;BME280;51107;47.652;19.016;2023-03-13T01:06:38;100049.44;;;3.06;61.67
64683;BME280;51107;47.652;19.016;2023-03-13T01:09:11;100053.03;;;3.04;60.99
64683;BME280;51107;47.652;19.016;2023-03-13T01:11:42;100044.06;;;2.97;61.21
64683;BME280;51107;47.652;19.016;2023-03-13T01:14:16;100038.81;;;2.98;60.23
64683;BME280;51107;47.652;19.016;2023-03-13T01:16:44;100031.78;;;3.15;60.98
64683;BME280;51107;47.652;19.016;2023-03-13T01:19:15;100049.78;;;3.29;61.28
64683;BME280;51107;47.652;19.016;2023-03-13T01:21:45;100042.97;;;3.28;61.64
64683;BME280;51107;47.652;19.016;2023-03-13T01:24:14;100024.28;;;3.25;61.28
64683;BME280;51107;47.652;19.016;2023-03-13T01:26:43;100033.19;;;3.33;62.88
64683;BME280;51107;47.652;19.016;2023-03-13T01:29:12;100030.03;;;3.43;63.19
64683;BME280;51107;47.652;19.016;2023-03-13T01:31:41;100033.34;;;3.45;63.89
64683;BME280;51107;47.652;19.016;2023-03-13T01:34:12;100022.09;;;3.46;64.65
64683;BME280;51107;47.652;19.016;2023-03-13T01:36:40;100023.03;;;3.45;64.51
64683;BME280;51107;47.652;19.016;2023-03-13T01:39:09;100013.13;;;3.38;64.04
64683;BME280;51107;47.652;19.016;2023-03-13T01:41:37;100009.63;;;3.39;66.39
64683;BME280;51107;47.652;19.016;2023-03-13T01:44:24;100017.88;;;3.45;65.74
64683;BME280;51107;47.652;19.016;2023-03-13T01:46:52;100011.88;;;3.31;64.74
64683;BME280;51107;47.652;19.016;2023-03-13T01:49:28;100001.44;;;3.20;64.74
64683;BME280;51107;47.652;19.016;2023-03-13T01:52:14;100012.69;;;3.04;65.91
64683;BME280;51107;47.652;19.016;2023-03-13T01:54:56;100016.03;;;2.92;66.22
64683;BME280;51107;47.652;19.016;2023-03-13T01:57:40;100002.47;;;3.03;66.82
64683;BME280;51107;47.652;19.016;2023-03-13T02:00:14;99998.31;;;3.15;67.03
64683;BME280;51107;47.652;19.016;2023-03-13T02:02:48;100007.19;;;3.23;68.64
64683;BME280;51107;47.652;19.016;2023-03-13T02:05:19;100012.06;;;3.28;68.13
64683;BME280;51107;47.652;19.016;2023-03-13T02:07:59;100012.50;;;3.35;68.18
64683;BME280;51107;47.652;19.016;2023-03-13T02:10:30;100010.59;;;3.51;68.20
64683;BME280;51107;47.652;19.016;2023-03-13T02:12:59;100013.09;;;3.66;68.91
64683;BME280;51107;47.652;19.016;2023-03-13T02:15:30;100018.56;;;3.74;68.07
64683;BME280;51107;47.652;19.016;2023-03-13T02:17:59;100013.63;;;3.84;67.12
64683;BME280;51107;47.652;19.016;2023-03-13T02:20:27;99998.78;;;3.87;66.62
64683;BME280;51107;47.652;19.016;2023-03-13T02:23:20;100010.34;;;3.82;67.54
64683;BME280;51107;47.652;19.016;2023-03-13T02:25:52;99992.63;;;3.90;67.00
64683;BME280;51107;47.652;19.016;2023-03-13T02:28:27;99994.97;;;4.06;67.18
64683;BME280;51107;47.652;19.016;2023-03-13T02:31:01;100004.56;;;4.17;66.33
64683;BME280;51107;47.652;19.016;2023-03-13T02:33:33;99999.00;;;4.23;65.68
64683;BME280;51107;47.652;19.016;2023-03-13T02:36:04;99996.44;;;4.23;66.92
64683;BME280;51107;47.652;19.016;2023-03-13T02:38:40;99990.03;;;4.29;65.79
64683;BME280;51107;47.652;19.016;2023-03-13T02:41:12;99983.72;;;4.20;66.17
64683;BME280;51107;47.652;19.016;2023-03-13T02:43:41;99988.56;;;4.12;66.60
64683;BME280;51107;47.652;19.016;2023-03-13T02:46:16;99989.94;;;4.04;67.35
64683;BME280;51107;47.652;19.016;2023-03-13T02:48:54;99996.62;;;4.07;67.11
64683;BME280;51107;47.652;19.016;2023-03-13T02:51:36;99988.47;;;4.13;68.09
64683;BME280;51107;47.652;19.016;2023-03-13T02:54:16;99993.25;;;4.06;67.25
64683;BME280;51107;47.652;19.016;2023-03-13T02:56:47;99994.66;;;3.98;66.85
64683;BME280;51107;47.652;19.016;2023-03-13T02:59:16;100005.06;;;4.09;67.31
64683;BME280;51107;47.652;19.016;2023-03-13T03:01:45;100009.09;;;4.13;67.33
64683;BME280;51107;47.652;19.016;2023-03-13T03:04:14;100013.53;;;4.24;67.00
64683;BME280;51107;47.652;19.016;2023-03-13T03:06:42;100000.63;;;4.24;67.42
64683;BME280;51107;47.652;19.016;2023-03-13T03:09:11;100013.44;;;4.25;66.79
64683;BME280;51107;47.652;19.016;2023-03-13T03:11:39;100017.16;;;4.34;66.12
64683;BME280;51107;47.652;19.016;2023-03-13T03:14:09;100003.41;;;4.34;66.37
64683;BME280;51107;47.652;19.016;2023-03-13T03:16:39;99992.41;;;4.32;66.92
64683;BME280;51107;47.652;19.016;2023-03-13T03:19:08;100014.88;;;4.30;65.59
64683;BME280;51107;47.652;19.016;2023-03-13T03:21:38;100008.69;;;4.32;64.77
64683;BME280;51107;47.652;19.016;2023-03-13T03:24:06;100002.19;;;4.39;68.53
64683;BME280;51107;47.652;19.016;2023-03-13T03:26:36;100001.25;;;4.40;68.14
64683;BME280;51107;47.652;19.016;2023-03-13T03:29:05;100007.44;;;4.38;67.75
64683;BME280;51107;47.652;19.016;2023-03-13T03:31:35;100006.53;;;4.52;66.37
64683;BME280;51107;47.652;19.016;2023-03-13T03:34:03;99996.59;;;4.46;65.74
64683;BME280;51107;47.652;19.016;2023-03-13T03:36:32;99997.75;;;4.41;67.37
64683;BME280;51107;47.652;19.016;2023-03-13T03:39:00;99995.16;;;4.41;66.12
64683;BME280;51107;47.652;19.016;2023-03-13T03:41:30;99993.09;;;4.47;66.87
64683;BME280;51107;47.652;19.016;2023-03-13T03:43:59;99993.50;;;4.40;66.73
64683;BME280;51107;47.652;19.016;2023-03-13T03:46:28;100006.22;;;4.44;66.02
64683;BME280;51107;47.652;19.016;2023-03-13T03:48:56;100002.38;;;4.36;65.90
64683;BME280;51107;47.652;19.016;2023-03-13T03:51:25;100007.88;;;4.32;66.73
64683;BME280;51107;47.652;19.016;2023-03-13T03:53:54;100024.81;;;4.23;66.37
64683;BME280;51107;47.652;19.016;2023-03-13T03:56:22;100031.28;;;4.16;66.71
64683;BME280;51107;47.652;19.016;2023-03-13T03:58:52;100013.34;;;4.14;66.97
64683;BME280;51107;47.652;19.016;2023-03-13T04:01:20;100024.50;;;4.15;68.01
64683;BME280;51107;47.652;19.016;2023-03-13T04:03:49;100044.91;;;4.18;67.79
64683;BME280;51107;47.652;19.016;2023-03-13T04:06:18;100030.56;;;4.14;68.20
64683;BME280;51107;47.652;19.016;2023-03-13T04:08:47;100049.66;;;4.11;68.58
64683;BME280;51107;47.652;19.016;2023-03-13T04:11:15;100037.56;;;4.12;68.23
64683;BME280;51107;47.652;19.016;2023-03-13T04:13:44;100057.69;;;4.06;69.22
64683;BME280;51107;47.652;19.016;2023-03-13T04:16:12;100049.84;;;4.08;69.10
64683;BME280;51107;47.652;19.016;2023-03-13T04:18:41;100051.81;;;4.04;69.02
64683;BME280;51107;47.652;19.016;2023-03-13T04:21:10;100050.03;;;4.05;69.81
64683;BME280;51107;47.652;19.016;2023-03-13T04:23:39;100060.28;;;4.06;68.93
64683;BME280;51107;47.652;19.016;2023-03-13T04:26:07;100071.50;;;4.05;68.88
64683;BME280;51107;47.652;19.016;2023-03-13T04:28:38;100066.25;;;4.07;69.43
64683;BME280;51107;47.652;19.016;2023-03-13T04:31:07;100068.00;;;4.06;69.03
64683;BME280;51107;47.652;19.016;2023-03-13T04:33:37;100061.72;;;4.11;68.95
64683;BME280;51107;47.652;19.016;2023-03-13T04:36:06;100060.06;;;4.10;69.46
64683;BME280;51107;47.652;19.016;2023-03-13T04:38:34;100055.72;;;4.10;70.27
64683;BME280;51107;47.652;19.016;2023-03-13T04:41:03;100056.34;;;4.14;69.32
64683;BME280;51107;47.652;19.016;2023-03-13T04:43:32;100061.41;;;4.15;70.83
64683;BME280;51107;47.652;19.016;2023-03-13T04:46:00;100061.72;;;4.11;69.75
64683;BME280;51107;47.652;19.016;2023-03-13T04:48:29;100053.34;;;4.20;69.86
64683;BME280;51107;47.652;19.016;2023-03-13T04:50:58;100066.88;;;4.23;70.31
64683;BME280;51107;47.652;19.016;2023-03-13T04:53:27;100062.53;;;4.24;67.51
64683;BME280;51107;47.652;19.016;2023-03-13T04:55:55;100067.78;;;4.10;67.63
64683;BME280;51107;47.652;19.016;2023-03-13T04:58:25;100064.63;;;4.19;69.10
64683;BME280;51107;47.652;19.016;2023-03-13T05:00:55;100066.78;;;4.25;70.05
64683;BME280;51107;47.652;19.016;2023-03-13T05:03:24;100075.25;;;4.27;69.57
64683;BME280;51107;47.652;19.016;2023-03-13T05:05:52;100072.25;;;4.33;68.82
64683;BME280;51107;47.652;19.016;2023-03-13T05:08:21;100073.38;;;4.29;68.79
64683;BME280;51107;47.652;19.016;2023-03-13T05:10:50;100067.59;;;4.25;69.91
64683;BME280;51107;47.652;19.016;2023-03-13T05:13:19;100068.22;;;4.16;68.89
64683;BME280;51107;47.652;19.016;2023-03-13T05:15:49;100068.50;;;4.12;69.96
64683;BME280;51107;47.652;19.016;2023-03-13T05:18:20;100075.81;;;4.05;67.28
64683;BME280;51107;47.652;19.016;2023-03-13T05:20:48;100077.69;;;4.16;65.13
64683;BME280;51107;47.652;19.016;2023-03-13T05:23:18;100076.28;;;4.24;64.49
64683;BME280;51107;47.652;19.016;2023-03-13T05:25:46;100089.06;;;4.26;65.44
64683;BME280;51107;47.652;19.016;2023-03-13T05:28:14;100091.31;;;4.31;64.71
64683;BME280;51107;47.652;19.016;2023-03-13T05:30:43;100090.81;;;4.38;64.28
64683;BME280;51107;47.652;19.016;2023-03-13T05:33:12;100085.22;;;4.45;66.39
64683;BME280;51107;47.652;19.016;2023-03-13T05:35:41;100085.06;;;4.48;65.66
64683;BME280;51107;47.652;19.016;2023-03-13T05:38:11;100095.78;;;4.41;66.24
64683;BME280;51107;47.652;19.016;2023-03-13T05:40:39;100098.94;;;4.32;63.71
64683;BME280;51107;47.652;19.016;2023-03-13T05:43:08;100084.22;;;4.34;64.33
64683;BME280;51107;47.652;19.016;2023-03-13T05:45:38;100086.06;;;4.32;63.30
64683;BME280;51107;47.652;19.016;2023-03-13T05:48:07;100084.75;;;4.39;63.72
64683;BME280;51107;47.652;19.016;2023-03-13T05:50:37;100081.94;;;4.42;63.21
64683;BME280;51107;47.652;19.016;2023-03-13T05:53:06;100082.25;;;4.51;63.46
64683;BME280;51107;47.652;19.016;2023-03-13T05:55:34;100084.00;;;4.63;64.15
64683;BME280;51107;47.652;19.016;2023-03-13T05:58:03;100079.34;;;4.68;62.80
64683;BME280;51107;47.652;19.016;2023-03-13T06:00:33;100080.91;;;4.58;62.19
64683;BME280;51107;47.652;19.016;2023-03-13T06:03:03;100079.56;;;4.52;61.72
64683;BME280;51107;47.652;19.016;2023-03-13T06:05:32;100095.75;;;4.54;62.19
64683;BME280;51107;47.652;19.016;2023-03-13T06:08:02;100087.31;;;4.52;62.22
64683;BME280;51107;47.652;19.016;2023-03-13T06:10:30;100078.53;;;4.55;61.59
64683;BME280;51107;47.652;19.016;2023-03-13T06:12:59;100075.03;;;4.56;61.28
64683;BME280;51107;47.652;19.016;2023-03-13T06:15:55;100084.22;;;4.60;61.64
64683;BME280;51107;47.652;19.016;2023-03-13T06:18:25;100092.25;;;4.68;61.60
64683;BME280;51107;47.652;19.016;2023-03-13T06:20:57;100083.34;;;4.72;60.17
64683;BME280;51107;47.652;19.016;2023-03-13T06:23:26;100079.84;;;4.73;59.96
64683;BME280;51107;47.652;19.016;2023-03-13T06:25:55;100093.38;;;4.77;59.93
64683;BME280;51107;47.652;19.016;2023-03-13T06:28:23;100094.37;;;4.87;59.29
64683;BME280;51107;47.652;19.016;2023-03-13T06:30:51;100094.66;;;5.08;59.63
64683;BME280;51107;47.652;19.016;2023-03-13T06:33:20;100097.09;;;5.23;58.08
64683;BME280;51107;47.652;19.016;2023-03-13T06:35:48;100088.81;;;5.31;57.72
64683;BME280;51107;47.652;19.016;2023-03-13T06:38:37;100089.41;;;5.34;57.62
64683;BME280;51107;47.652;19.016;2023-03-13T06:41:05;100092.00;;;5.34;57.33
64683;BME280;51107;47.652;19.016;2023-03-13T06:43:34;100085.47;;;5.41;57.48
64683;BME280;51107;47.652;19.016;2023-03-13T06:46:03;100091.97;;;5.47;56.76
64683;BME280;51107;47.652;19.016;2023-03-13T06:48:32;100094.16;;;5.40;56.89
64683;BME280;51107;47.652;19.016;2023-03-13T06:51:00;100100.34;;;5.38;56.47
64683;BME280;51107;47.652;19.016;2023-03-13T06:53:29;100094.66;;;5.46;57.01
64683;BME280;51107;47.652;19.016;2023-03-13T06:56:00;100097.94;;;5.48;56.88
64683;BME280;51107;47.652;19.016;2023-03-13T06:58:29;100095.31;;;5.36;56.56
64683;BME280;51107;47.652;19.016;2023-03-13T07:01:09;100094.47;;;5.36;57.20
64683;BME280;51107;47.652;19.016;2023-03-13T07:03:38;100093.22;;;5.41;57.65
64683;BME280;51107;47.652;19.016;2023-03-13T07:06:10;100087.66;;;5.35;58.57
64683;BME280;51107;47.652;19.016;2023-03-13T07:08:40;100090.03;;;5.38;57.52
64683;BME280;51107;47.652;19.016;2023-03-13T07:11:11;100095.91;;;5.40;58.62
64683;BME280;51107;47.652;19.016;2023-03-13T07:13:40;100090.12;;;5.60;59.30
64683;BME280;51107;47.652;19.016;2023-03-13T07:16:11;100082.47;;;5.59;60.02
64683;BME280;51107;47.652;19.016;2023-03-13T07:18:40;100088.31;;;5.74;59.24
64683;BME280;51107;47.652;19.016;2023-03-13T07:21:09;100082.38;;;5.96;59.33
64683;BME280;51107;47.652;19.016;2023-03-13T07:23:38;100079.91;;;5.94;59.19
64683;BME280;51107;47.652;19.016;2023-03-13T07:26:10;100083.66;;;5.90;59.54
64683;BME280;51107;47.652;19.016;2023-03-13T07:28:40;100085.44;;;5.90;59.28
64683;BME280;51107;47.652;19.016;2023-03-13T07:31:17;100085.63;;;6.11;59.22
64683;BME280;51107;47.652;19.016;2023-03-13T07:33:46;100084.63;;;6.36;58.66
64683;BME280;51107;47.652;19.016;2023-03-13T07:36:15;100086.38;;;6.36;59.01
64683;BME280;51107;47.652;19.016;2023-03-13T07:38:47;100090.28;;;6.53;58.14
64683;BME280;51107;47.652;19.016;2023-03-13T07:41:15;100071.09;;;6.89;58.14
64683;BME280;51107;47.652;19.016;2023-03-13T07:43:45;100071.78;;;7.14;56.87
64683;BME280;51107;47.652;19.016;2023-03-13T07:46:16;100077.16;;;7.66;53.00
64683;BME280;51107;47.652;19.016;2023-03-13T07:48:49;100071.78;;;8.00;52.93
64683;BME280;51107;47.652;19.016;2023-03-13T07:51:19;100064.81;;;8.43;52.51
64683;BME280;51107;47.652;19.016;2023-03-13T07:54:04;100068.81;;;8.47;51.49
64683;BME280;51107;47.652;19.016;2023-03-13T07:56:32;100064.84;;;8.74;50.21
64683;BME280;51107;47.652;19.016;2023-03-13T07:59:00;100061.37;;;9.04;49.45
64683;BME280;51107;47.652;19.016;2023-03-13T08:01:29;100056.03;;;8.96;50.73
64683;BME280;51107;47.652;19.016;2023-03-13T08:03:58;100052.94;;;9.22;50.41
64683;BME280;51107;47.652;19.016;2023-03-13T08:06:31;100044.56;;;9.28;48.56
64683;BME280;51107;47.652;19.016;2023-03-13T08:09:01;100035.78;;;9.97;48.60
64683;BME280;51107;47.652;19.016;2023-03-13T08:11:29;100041.38;;;10.60;47.95
64683;BME280;51107;47.652;19.016;2023-03-13T08:13:58;100043.66;;;10.35;46.56
64683;BME280;51107;47.652;19.016;2023-03-13T08:16:31;100027.63;;;10.67;45.65
64683;BME280;51107;47.652;19.016;2023-03-13T08:19:03;100037.97;;;11.05;45.43
64683;BME280;51107;47.652;19.016;2023-03-13T08:21:35;100023.00;;;11.43;45.09
64683;BME280;51107;47.652;19.016;2023-03-13T08:24:07;100035.78;;;11.28;44.21
64683;BME280;51107;47.652;19.016;2023-03-13T08:26:40;100033.59;;;11.24;44.32
64683;BME280;51107;47.652;19.016;2023-03-13T08:29:13;100029.31;;;11.04;43.96
64683;BME280;51107;47.652;19.016;2023-03-13T08:31:47;100023.03;;;10.79;44.47
64683;BME280;51107;47.652;19.016;2023-03-13T08:34:16;100025.50;;;11.89;44.39
64683;BME280;51107;47.652;19.016;2023-03-13T08:36:45;100007.97;;;12.77;41.20
64683;BME280;51107;47.652;19.016;2023-03-13T08:39:18;100020.13;;;12.43;42.82
64683;BME280;51107;47.652;19.016;2023-03-13T08:41:48;100009.97;;;12.05;42.94
64683;BME280;51107;47.652;19.016;2023-03-13T08:44:17;100004.94;;;12.89;40.96
64683;BME280;51107;47.652;19.016;2023-03-13T08:46:47;100008.69;;;12.95;38.13
64683;BME280;51107;47.652;19.016;2023-03-13T08:49:16;99998.38;;;12.85;37.45
64683;BME280;51107;47.652;19.016;2023-03-13T08:51:45;99990.88;;;13.07;36.64
64683;BME280;51107;47.652;19.016;2023-03-13T08:54:13;99994.50;;;12.47;37.39
64683;BME280;51107;47.652;19.016;2023-03-13T08:56:42;99985.41;;;13.43;40.38
64683;BME280;51107;47.652;19.016;2023-03-13T08:59:10;99993.00;;;14.10;38.01
64683;BME280;51107;47.652;19.016;2023-03-13T09:01:39;99988.69;;;14.26;37.54
64683;BME280;51107;47.652;19.016;2023-03-13T09:04:08;99993.03;;;14.82;36.66
64683;BME280;51107;47.652;19.016;2023-03-13T09:06:37;99986.63;;;13.97;37.30
64683;BME280;51107;47.652;19.016;2023-03-13T09:09:07;99983.66;;;14.16;37.90
64683;BME280;51107;47.652;19.016;2023-03-13T09:11:37;99991.09;;;13.71;37.71
64683;BME280;51107;47.652;19.016;2023-03-13T09:14:06;99979.34;;;14.71;37.22
64683;BME280;51107;47.652;19.016;2023-03-13T09:16:35;99980.91;;;16.18;34.63
64683;BME280;51107;47.652;19.016;2023-03-13T09:19:04;99975.12;;;15.55;34.94
64683;BME280;51107;47.652;19.016;2023-03-13T09:21:34;99973.78;;;15.74;34.51
64683;BME280;51107;47.652;19.016;2023-03-13T09:24:03;99970.78;;;15.47;32.73
64683;BME280;51107;47.652;19.016;2023-03-13T09:26:34;99960.19;;;13.67;33.66
64683;BME280;51107;47.652;19.016;2023-03-13T09:29:03;99952.47;;;13.82;34.12
64683;BME280;51107;47.652;19.016;2023-03-13T09:31:32;99949.00;;;13.89;34.85
64683;BME280;51107;47.652;19.016;2023-03-13T09:34:00;99960.47;;;14.36;35.78
64683;BME280;51107;47.652;19.016;2023-03-13T09:36:29;99957.91;;;13.22;36.79
64683;BME280;51107;47.652;19.016;2023-03-13T09:38:58;99957.72;;;13.82;37.40
64683;BME280;51107;47.652;19.016;2023-03-13T09:42:08;99957.56;;;13.67;37.28
64683;BME280;51107;47.652;19.016;2023-03-13T09:44:58;99960.53;;;13.55;37.94
64683;BME280;51107;47.652;19.016;2023-03-13T09:47:43;99945.31;;;12.42;39.95
64683;BME280;51107;47.652;19.016;2023-03-13T09:50:33;99951.06;;;13.38;39.91
64683;BME280;51107;47.652;19.016;2023-03-13T09:53:13;99954.63;;;13.29;38.72
64683;BME280;51107;47.652;19.016;2023-03-13T09:55:43;99953.78;;;13.12;38.97
64683;BME280;51107;47.652;19.016;2023-03-13T09:58:21;99951.34;;;13.02;39.59
64683;BME280;51107;47.652;19.016;2023-03-13T10:00:53;99935.00;;;13.49;37.93
64683;BME280;51107;47.652;19.016;2023-03-13T10:03:38;99936.81;;;13.40;37.70
64683;BME280;51107;47.652;19.016;2023-03-13T10:06:19;99939.97;;;14.00;37.24
64683;BME280;51107;47.652;19.016;2023-03-13T10:08:48;99938.44;;;13.41;37.06
64683;BME280;51107;47.652;19.016;2023-03-13T10:11:38;99939.59;;;13.47;37.42
64683;BME280;51107;47.652;19.016;2023-03-13T10:14:26;99929.03;;;14.28;37.12
64683;BME280;51107;47.652;19.016;2023-03-13T10:16:59;99926.91;;;13.84;35.81
64683;BME280;51107;47.652;19.016;2023-03-13T10:19:40;99921.97;;;14.68;36.50
64683;BME280;51107;47.652;19.016;2023-03-13T10:22:18;99928.25;;;15.28;34.77
64683;BME280;51107;47.652;19.016;2023-03-13T10:24:54;99924.47;;;14.30;36.26
64683;BME280;51107;47.652;19.016;2023-03-13T10:27:24;99918.41;;;14.30;36.22
64683;BME280;51107;47.652;19.016;2023-03-13T10:29:52;99909.44;;;13.76;36.11
64683;BME280;51107;47.652;19.016;2023-03-13T10:32:21;99916.34;;;13.28;37.08
64683;BME280;51107;47.652;19.016;2023-03-13T10:34:59;99904.28;;;14.39;36.85
64683;BME280;51107;47.652;19.016;2023-03-13T10:37:30;99903.38;;;14.55;36.14
64683;BME280;51107;47.652;19.016;2023-03-13T10:40:12;99917.37;;;14.39;36.40
64683;BME280;51107;47.652;19.016;2023-03-13T10:42:43;99907.59;;;14.33;36.74
64683;BME280;51107;47.652;19.016;2023-03-13T10:45:17;99908.31;;;14.50;35.65
64683;BME280;51107;47.652;19.016;2023-03-13T10:48:01;99901.59;;;13.76;36.60
64683;BME280;51107;47.652;19.016;2023-03-13T10:50:34;99894.41;;;14.18;37.29
64683;BME280;51107;47.652;19.016;2023-03-13T10:55:56;99897.34;;;13.67;36.49
64683;BME280;51107;47.652;19.016;2023-03-13T10:58:40;99896.13;;;13.94;37.13
64683;BME280;51107;47.652;19.016;2023-03-13T11:01:26;99891.66;;;14.03;36.46
64683;BME280;51107;47.652;19.016;2023-03-13T11:03:56;99887.06;;;14.36;36.43
64683;BME280;51107;47.652;19.016;2023-03-13T11:06:29;99882.97;;;14.10;37.14
64683;BME280;51107;47.652;19.016;2023-03-13T11:09:10;99867.03;;;14.20;37.71
64683;BME280;51107;47.652;19.016;2023-03-13T11:11:50;99870.22;;;15.08;36.50
64683;BME280;51107;47.652;19.016;2023-03-13T11:14:22;99866.28;;;14.35;36.34
64683;BME280;51107;47.652;19.016;2023-03-13T11:25:24;99852.16;;;14.44;36.59
64683;BME280;51107;47.652;19.016;2023-03-13T11:28:03;99846.78;;;14.37;37.50
64683;BME280;51107;47.652;19.016;2023-03-13T11:31:06;99839.63;;;14.31;37.32
64683;BME280;51107;47.652;19.016;2023-03-13T11:36:21;99826.72;;;13.98;38.28
64683;BME280;51107;47.652;19.016;2023-03-13T11:38:58;99832.66;;;14.15;38.21
64683;BME280;51107;47.652;19.016;2023-03-13T11:41:58;99820.88;;;13.80;38.36
64683;BME280;51107;47.652;19.016;2023-03-13T11:44:35;99811.09;;;14.36;38.15
64683;BME280;51107;47.652;19.016;2023-03-13T11:50:07;99810.81;;;14.31;37.59
64683;BME280;51107;47.652;19.016;2023-03-13T11:55:30;99795.00;;;14.16;37.10
64683;BME280;51107;47.652;19.016;2023-03-13T12:00:49;99786.09;;;14.02;37.67
64683;BME280;51107;47.652;19.016;2023-03-13T12:06:02;99768.69;;;14.09;39.05
64683;BME280;51107;47.652;19.016;2023-03-13T12:08:39;99773.66;;;14.27;37.79
64683;BME280;51107;47.652;19.016;2023-03-13T12:11:16;99766.34;;;14.38;36.99
64683;BME280;51107;47.652;19.016;2023-03-13T12:14:04;99759.44;;;14.45;37.26
64683;BME280;51107;47.652;19.016;2023-03-13T12:16:45;99765.84;;;14.66;36.57
64683;BME280;51107;47.652;19.016;2023-03-13T12:22:24;99759.75;;;14.88;37.36
64683;BME280;51107;47.652;19.016;2023-03-13T12:25:03;99748.78;;;14.47;37.58
64683;BME280;51107;47.652;19.016;2023-03-13T12:27:37;99742.75;;;14.61;37.31
64683;BME280;51107;47.652;19.016;2023-03-13T12:33:24;99733.56;;;14.42;37.59
64683;BME280;51107;47.652;19.016;2023-03-13T12:38:40;99715.69;;;14.84;37.92
64683;BME280;51107;47.652;19.016;2023-03-13T12:41:21;99718.00;;;14.64;38.00
64683;BME280;51107;47.652;19.016;2023-03-13T12:43:54;99706.09;;;14.76;38.19
64683;BME280;51107;47.652;19.016;2023-03-13T12:54:47;99681.56;;;15.14;37.71
64683;BME280;51107;47.652;19.016;2023-03-13T12:58:18;99671.63;;;15.09;37.08
64683;BME280;51107;47.652;19.016;2023-03-13T13:00:48;99672.81;;;15.06;37.40
64683;BME280;51107;47.652;19.016;2023-03-13T13:06:05;99684.25;;;15.50;37.95
64683;BME280;51107;47.652;19.016;2023-03-13T13:08:39;99673.37;;;15.17;36.65
64683;BME280;51107;47.652;19.016;2023-03-13T13:16:57;99654.81;;;14.73;38.11
64683;BME280;51107;47.652;19.016;2023-03-13T13:32:37;99638.94;;;14.52;38.86
64683;BME280;51107;47.652;19.016;2023-03-13T13:37:41;99633.13;;;14.65;38.91
64683;BME280;51107;47.652;19.016;2023-03-13T13:53:45;99612.75;;;14.52;39.60
64683;BME280;51107;47.652;19.016;2023-03-13T13:56:33;99612.22;;;14.56;39.71
64683;BME280;51107;47.652;19.016;2023-03-13T13:59:43;99609.88;;;14.47;39.85
64683;BME280;51107;47.652;19.016;2023-03-13T14:02:18;99622.13;;;14.46;39.71
64683;BME280;51107;47.652;19.016;2023-03-13T14:10:38;99607.50;;;14.52;40.11
64683;BME280;51107;47.652;19.016;2023-03-13T14:13:13;99617.47;;;14.56;40.28
64683;BME280;51107;47.652;19.016;2023-03-13T14:15:45;99608.88;;;14.63;39.93
64683;BME280;51107;47.652;19.016;2023-03-13T14:18:24;99611.69;;;14.76;39.77
64683;BME280;51107;47.652;19.016;2023-03-13T14:21:02;99605.84;;;14.74;39.75
64683;BME280;51107;47.652;19.016;2023-03-13T14:23:41;99592.53;;;14.75;40.17
64683;BME280;51107;47.652;19.016;2023-03-13T14:26:22;99596.78;;;14.76;39.80
64683;BME280;51107;47.652;19.016;2023-03-13T14:28:59;99597.87;;;14.82;40.12
64683;BME280;51107;47.652;19.016;2023-03-13T14:31:33;99598.97;;;15.09;40.11
64683;BME280;51107;47.652;19.016;2023-03-13T14:34:04;99588.38;;;15.18;39.62
64683;BME280;51107;47.652;19.016;2023-03-13T14:42:11;99592.03;;;15.38;39.38
64683;BME280;51107;47.652;19.016;2023-03-13T14:44:40;99590.69;;;15.27;38.93
64683;BME280;51107;47.652;19.016;2023-03-13T14:47:25;99589.41;;;15.17;39.68
64683;BME280;51107;47.652;19.016;2023-03-13T14:50:25;99585.41;;;15.21;39.89